sensor_id;sensor_type;location;lat;lon;timestamp;temperature;humidity
15937;DHT22;9163;48.818;8.976;2022-10-04T00:02:05;6.90;99.90
15937;DHT22;9163;48.818;8.976;2022-10-04T00:04:44;7.00;99.90
15937;DHT22;9163;48.818;8.976;2022-10-04T00:07:17;6.90;99.90
15937;DHT22;9163;48.818;8.976;2022-10-04T00:09:49;6.80;99.90
15937;DHT22;9163;48.818;8.976;2022-10-04T00:12:19;6.90;99.90
15937;DHT22;9163;48.818;8.976;2022-10-04T00:14:48;6.80;99.90
15937;DHT22;9163;48.818;8.976;2022-10-04T00:17:21;6.90;99.90
15937;DHT22;9163;48.818;8.976;2022-10-04T00:19:50;6.90;99.90
15937;DHT22;9163;48.818;8.976;2022-10-04T00:22:21;6.90;99.90
15937;DHT22;9163;48.818;8.976;2022-10-04T00:25:18;7.00;99.90
15937;DHT22;9163;48.818;8.976;2022-10-04T00:28:14;6.90;99.90
15937;DHT22;9163;48.818;8.976;2022-10-04T00:30:42;6.90;99.90
15937;DHT22;9163;48.818;8.976;2022-10-04T00:33:09;6.80;99.90
15937;DHT22;9163;48.818;8.976;2022-10-04T00:35:47;6.80;99.90
15937;DHT22;9163;48.818;8.976;2022-10-04T00:38:24;6.80;99.90
15937;DHT22;9163;48.818;8.976;2022-10-04T00:40:56;6.70;99.90
15937;DHT22;9163;48.818;8.976;2022-10-04T00:43:31;6.70;99.90
15937;DHT22;9163;48.818;8.976;2022-10-04T00:46:03;6.70;99.90
15937;DHT22;9163;48.818;8.976;2022-10-04T00:48:37;6.70;99.90
15937;DHT22;9163;48.818;8.976;2022-10-04T00:51:12;6.70;99.90
15937;DHT22;9163;48.818;8.976;2022-10-04T00:54:01;6.60;99.90
15937;DHT22;9163;48.818;8.976;2022-10-04T00:56:36;6.60;99.90
15937;DHT22;9163;48.818;8.976;2022-10-04T00:59:28;6.60;99.90
15937;DHT22;9163;48.818;8.976;2022-10-04T01:01:59;6.50;99.90
15937;DHT22;9163;48.818;8.976;2022-10-04T01:04:35;6.50;99.90
15937;DHT22;9163;48.818;8.976;2022-10-04T01:07:04;6.40;99.90
15937;DHT22;9163;48.818;8.976;2022-10-04T01:09:37;6.40;99.90
15937;DHT22;9163;48.818;8.976;2022-10-04T01:12:09;6.40;99.90
15937;DHT22;9163;48.818;8.976;2022-10-04T01:14:46;6.30;99.90
15937;DHT22;9163;48.818;8.976;2022-10-04T01:17:16;6.30;99.90
15937;DHT22;9163;48.818;8.976;2022-10-04T01:19:52;6.20;99.90
15937;DHT22;9163;48.818;8.976;2022-10-04T01:22:34;6.30;99.90
15937;DHT22;9163;48.818;8.976;2022-10-04T01:25:02;6.30;99.90
15937;DHT22;9163;48.818;8.976;2022-10-04T01:27:40;6.30;99.90
15937;DHT22;9163;48.818;8.976;2022-10-04T01:30:09;6.30;99.90
15937;DHT22;9163;48.818;8.976;2022-10-04T01:32:37;6.30;99.90
15937;DHT22;9163;48.818;8.976;2022-10-04T01:35:07;6.30;99.90
15937;DHT22;9163;48.818;8.976;2022-10-04T01:37:37;6.30;99.90
15937;DHT22;9163;48.818;8.976;2022-10-04T01:40:06;6.20;99.90
15937;DHT22;9163;48.818;8.976;2022-10-04T01:42:39;6.20;99.90
15937;DHT22;9163;48.818;8.976;2022-10-04T01:45:14;6.10;99.90
15937;DHT22;9163;48.818;8.976;2022-10-04T01:47:46;6.10;99.90
15937;DHT22;9163;48.818;8.976;2022-10-04T01:50:20;6.20;99.90
15937;DHT22;9163;48.818;8.976;2022-10-04T01:52:54;6.10;99.90
15937;DHT22;9163;48.818;8.976;2022-10-04T01:55:25;6.20;99.90
15937;DHT22;9163;48.818;8.976;2022-10-04T01:57:59;6.10;99.90
15937;DHT22;9163;48.818;8.976;2022-10-04T02:00:29;6.10;99.90
15937;DHT22;9163;48.818;8.976;2022-10-04T02:03:00;6.10;99.90
15937;DHT22;9163;48.818;8.976;2022-10-04T02:05:33;6.10;99.90
15937;DHT22;9163;48.818;8.976;2022-10-04T02:08:06;6.10;99.90
15937;DHT22;9163;48.818;8.976;2022-10-04T02:10:35;6.10;99.90
15937;DHT22;9163;48.818;8.976;2022-10-04T02:13:06;6.10;99.90
15937;DHT22;9163;48.818;8.976;2022-10-04T02:15:35;6.10;99.90
15937;DHT22;9163;48.818;8.976;2022-10-04T02:18:09;6.00;99.90
15937;DHT22;9163;48.818;8.976;2022-10-04T02:20:38;6.00;99.90
15937;DHT22;9163;48.818;8.976;2022-10-04T02:23:09;6.00;99.90
15937;DHT22;9163;48.818;8.976;2022-10-04T02:25:37;6.00;99.90
15937;DHT22;9163;48.818;8.976;2022-10-04T02:28:08;6.00;99.90
15937;DHT22;9163;48.818;8.976;2022-10-04T02:30:37;6.00;99.90
15937;DHT22;9163;48.818;8.976;2022-10-04T02:33:06;6.00;99.90
15937;DHT22;9163;48.818;8.976;2022-10-04T02:35:34;6.00;99.90
15937;DHT22;9163;48.818;8.976;2022-10-04T02:38:11;6.00;99.90
15937;DHT22;9163;48.818;8.976;2022-10-04T02:40:45;5.90;99.90
15937;DHT22;9163;48.818;8.976;2022-10-04T02:43:16;6.00;99.90
15937;DHT22;9163;48.818;8.976;2022-10-04T02:45:48;6.00;99.90
15937;DHT22;9163;48.818;8.976;2022-10-04T02:48:35;5.90;99.90
15937;DHT22;9163;48.818;8.976;2022-10-04T02:51:16;5.90;99.90
15937;DHT22;9163;48.818;8.976;2022-10-04T02:53:52;5.80;99.90
15937;DHT22;9163;48.818;8.976;2022-10-04T02:56:23;5.80;99.90
15937;DHT22;9163;48.818;8.976;2022-10-04T02:58:51;5.80;99.90
15937;DHT22;9163;48.818;8.976;2022-10-04T03:01:25;5.90;99.90
15937;DHT22;9163;48.818;8.976;2022-10-04T03:03:54;5.90;99.90
15937;DHT22;9163;48.818;8.976;2022-10-04T03:06:28;5.90;99.90
15937;DHT22;9163;48.818;8.976;2022-10-04T03:09:00;5.90;99.90
15937;DHT22;9163;48.818;8.976;2022-10-04T03:11:32;5.90;99.90
15937;DHT22;9163;48.818;8.976;2022-10-04T03:14:02;5.90;99.90
15937;DHT22;9163;48.818;8.976;2022-10-04T03:16:35;5.90;99.90
15937;DHT22;9163;48.818;8.976;2022-10-04T03:19:03;5.90;99.90
15937;DHT22;9163;48.818;8.976;2022-10-04T03:21:32;5.90;99.90
15937;DHT22;9163;48.818;8.976;2022-10-04T03:24:03;5.90;99.90
15937;DHT22;9163;48.818;8.976;2022-10-04T03:26:35;5.90;99.90
15937;DHT22;9163;48.818;8.976;2022-10-04T03:29:05;5.90;99.90
15937;DHT22;9163;48.818;8.976;2022-10-04T03:31:39;5.90;99.90
15937;DHT22;9163;48.818;8.976;2022-10-04T03:34:12;5.90;99.90
15937;DHT22;9163;48.818;8.976;2022-10-04T03:36:40;5.90;99.90
15937;DHT22;9163;48.818;8.976;2022-10-04T03:39:10;5.90;99.90
15937;DHT22;9163;48.818;8.976;2022-10-04T03:41:38;5.90;99.90
15937;DHT22;9163;48.818;8.976;2022-10-04T03:44:12;5.90;99.90
15937;DHT22;9163;48.818;8.976;2022-10-04T03:46:41;6.00;99.90
15937;DHT22;9163;48.818;8.976;2022-10-04T03:49:11;6.10;99.90
15937;DHT22;9163;48.818;8.976;2022-10-04T03:51:43;6.10;99.90
15937;DHT22;9163;48.818;8.976;2022-10-04T03:54:16;6.10;99.90
15937;DHT22;9163;48.818;8.976;2022-10-04T03:56:44;6.00;99.90
15937;DHT22;9163;48.818;8.976;2022-10-04T03:59:15;6.10;99.90
15937;DHT22;9163;48.818;8.976;2022-10-04T04:01:46;6.10;99.90
15937;DHT22;9163;48.818;8.976;2022-10-04T04:04:19;6.10;99.90
15937;DHT22;9163;48.818;8.976;2022-10-04T04:06:57;6.10;99.90
15937;DHT22;9163;48.818;8.976;2022-10-04T04:09:35;6.00;99.90
15937;DHT22;9163;48.818;8.976;2022-10-04T04:12:08;6.00;99.90
15937;DHT22;9163;48.818;8.976;2022-10-04T04:14:38;6.00;99.90
15937;DHT22;9163;48.818;8.976;2022-10-04T04:17:26;6.00;99.90
15937;DHT22;9163;48.818;8.976;2022-10-04T04:19:57;6.00;99.90
15937;DHT22;9163;48.818;8.976;2022-10-04T04:22:25;6.00;99.90
15937;DHT22;9163;48.818;8.976;2022-10-04T04:24:59;5.90;99.90
15937;DHT22;9163;48.818;8.976;2022-10-04T04:27:28;5.90;99.90
15937;DHT22;9163;48.818;8.976;2022-10-04T04:29:58;6.00;99.90
15937;DHT22;9163;48.818;8.976;2022-10-04T04:32:32;5.90;99.90
15937;DHT22;9163;48.818;8.976;2022-10-04T04:35:02;5.90;99.90
15937;DHT22;9163;48.818;8.976;2022-10-04T04:37:32;5.80;99.90
15937;DHT22;9163;48.818;8.976;2022-10-04T04:40:16;5.80;99.90
15937;DHT22;9163;48.818;8.976;2022-10-04T04:42:46;5.80;99.90
15937;DHT22;9163;48.818;8.976;2022-10-04T04:45:16;5.80;99.90
15937;DHT22;9163;48.818;8.976;2022-10-04T04:47:45;5.80;99.90
15937;DHT22;9163;48.818;8.976;2022-10-04T04:50:15;5.70;99.90
15937;DHT22;9163;48.818;8.976;2022-10-04T04:52:45;5.70;99.90
15937;DHT22;9163;48.818;8.976;2022-10-04T04:55:18;5.70;99.90
15937;DHT22;9163;48.818;8.976;2022-10-04T04:57:47;5.70;99.90
15937;DHT22;9163;48.818;8.976;2022-10-04T05:00:19;5.60;99.90
15937;DHT22;9163;48.818;8.976;2022-10-04T05:02:53;5.70;99.90
15937;DHT22;9163;48.818;8.976;2022-10-04T05:05:23;5.70;99.90
15937;DHT22;9163;48.818;8.976;2022-10-04T05:08:04;5.70;99.90
15937;DHT22;9163;48.818;8.976;2022-10-04T05:10:37;5.70;99.90
15937;DHT22;9163;48.818;8.976;2022-10-04T05:13:07;5.70;99.90
15937;DHT22;9163;48.818;8.976;2022-10-04T05:15:38;5.70;99.90
15937;DHT22;9163;48.818;8.976;2022-10-04T05:18:25;5.70;99.90
15937;DHT22;9163;48.818;8.976;2022-10-04T05:20:55;5.60;99.90
15937;DHT22;9163;48.818;8.976;2022-10-04T05:23:23;5.60;99.90
15937;DHT22;9163;48.818;8.976;2022-10-04T05:25:52;5.50;99.90
15937;DHT22;9163;48.818;8.976;2022-10-04T05:28:19;5.50;99.90
15937;DHT22;9163;48.818;8.976;2022-10-04T05:31:05;5.50;99.90
15937;DHT22;9163;48.818;8.976;2022-10-04T05:33:37;5.60;99.90
15937;DHT22;9163;48.818;8.976;2022-10-04T05:36:40;5.60;99.90
15937;DHT22;9163;48.818;8.976;2022-10-04T05:39:17;5.60;99.90
15937;DHT22;9163;48.818;8.976;2022-10-04T05:41:55;5.60;99.90
15937;DHT22;9163;48.818;8.976;2022-10-04T05:44:25;5.60;99.90
15937;DHT22;9163;48.818;8.976;2022-10-04T05:46:55;5.60;99.90
15937;DHT22;9163;48.818;8.976;2022-10-04T05:49:24;5.70;99.90
15937;DHT22;9163;48.818;8.976;2022-10-04T05:51:54;5.70;99.90
15937;DHT22;9163;48.818;8.976;2022-10-04T05:54:23;5.70;99.90
15937;DHT22;9163;48.818;8.976;2022-10-04T06:03:03;5.80;99.90
15937;DHT22;9163;48.818;8.976;2022-10-04T06:05:43;5.80;99.90
15937;DHT22;9163;48.818;8.976;2022-10-04T06:08:23;5.90;99.90
15937;DHT22;9163;48.818;8.976;2022-10-04T06:11:07;5.90;99.90
15937;DHT22;9163;48.818;8.976;2022-10-04T06:14:11;6.00;99.90
15937;DHT22;9163;48.818;8.976;2022-10-04T06:17:02;6.10;99.90
15937;DHT22;9163;48.818;8.976;2022-10-04T06:22:42;6.20;99.90
15937;DHT22;9163;48.818;8.976;2022-10-04T06:25:13;6.20;99.90
15937;DHT22;9163;48.818;8.976;2022-10-04T06:27:46;6.30;99.90
15937;DHT22;9163;48.818;8.976;2022-10-04T06:30:17;6.30;99.90
15937;DHT22;9163;48.818;8.976;2022-10-04T06:33:03;6.40;99.90
15937;DHT22;9163;48.818;8.976;2022-10-04T06:35:52;6.40;99.90
15937;DHT22;9163;48.818;8.976;2022-10-04T06:38:43;6.50;99.90
15937;DHT22;9163;48.818;8.976;2022-10-04T06:41:25;6.60;99.90
15937;DHT22;9163;48.818;8.976;2022-10-04T06:44:13;6.50;99.90
15937;DHT22;9163;48.818;8.976;2022-10-04T06:46:47;6.50;99.90
15937;DHT22;9163;48.818;8.976;2022-10-04T06:49:30;6.60;99.90
15937;DHT22;9163;48.818;8.976;2022-10-04T06:52:24;6.70;99.90
15937;DHT22;9163;48.818;8.976;2022-10-04T06:58:31;6.80;99.90
15937;DHT22;9163;48.818;8.976;2022-10-04T07:01:05;6.80;99.90
15937;DHT22;9163;48.818;8.976;2022-10-04T07:03:46;7.00;99.90
15937;DHT22;9163;48.818;8.976;2022-10-04T07:06:20;7.10;99.90
15937;DHT22;9163;48.818;8.976;2022-10-04T07:08:50;7.20;99.90
15937;DHT22;9163;48.818;8.976;2022-10-04T07:11:24;7.30;99.90
15937;DHT22;9163;48.818;8.976;2022-10-04T07:13:56;7.30;99.90
15937;DHT22;9163;48.818;8.976;2022-10-04T07:16:31;7.30;99.90
15937;DHT22;9163;48.818;8.976;2022-10-04T07:19:14;7.40;99.90
15937;DHT22;9163;48.818;8.976;2022-10-04T07:21:48;7.40;99.90
15937;DHT22;9163;48.818;8.976;2022-10-04T07:24:22;7.50;99.90
15937;DHT22;9163;48.818;8.976;2022-10-04T07:26:52;7.60;99.90
15937;DHT22;9163;48.818;8.976;2022-10-04T07:29:23;7.70;99.90
15937;DHT22;9163;48.818;8.976;2022-10-04T07:32:01;7.80;99.90
15937;DHT22;9163;48.818;8.976;2022-10-04T07:34:35;7.90;99.90
15937;DHT22;9163;48.818;8.976;2022-10-04T07:37:07;8.00;99.90
15937;DHT22;9163;48.818;8.976;2022-10-04T07:39:42;8.20;99.90
15937;DHT22;9163;48.818;8.976;2022-10-04T07:42:20;8.20;99.90
15937;DHT22;9163;48.818;8.976;2022-10-04T07:44:58;8.30;99.90
15937;DHT22;9163;48.818;8.976;2022-10-04T07:47:27;8.40;99.90
15937;DHT22;9163;48.818;8.976;2022-10-04T07:49:56;8.50;99.90
15937;DHT22;9163;48.818;8.976;2022-10-04T07:52:35;8.50;99.90
15937;DHT22;9163;48.818;8.976;2022-10-04T07:55:13;8.60;99.90
15937;DHT22;9163;48.818;8.976;2022-10-04T07:57:48;8.80;99.90
15937;DHT22;9163;48.818;8.976;2022-10-04T08:00:18;9.00;99.90
15937;DHT22;9163;48.818;8.976;2022-10-04T08:02:56;9.10;99.90
15937;DHT22;9163;48.818;8.976;2022-10-04T08:05:36;9.20;99.90
15937;DHT22;9163;48.818;8.976;2022-10-04T08:08:16;9.30;99.90
15937;DHT22;9163;48.818;8.976;2022-10-04T08:10:52;9.30;99.90
15937;DHT22;9163;48.818;8.976;2022-10-04T08:13:27;9.40;99.90
15937;DHT22;9163;48.818;8.976;2022-10-04T08:15:58;9.50;99.90
15937;DHT22;9163;48.818;8.976;2022-10-04T08:18:37;9.50;99.90
15937;DHT22;9163;48.818;8.976;2022-10-04T08:21:15;9.70;99.90
15937;DHT22;9163;48.818;8.976;2022-10-04T08:23:58;9.90;99.90
15937;DHT22;9163;48.818;8.976;2022-10-04T08:26:44;10.00;99.90
15937;DHT22;9163;48.818;8.976;2022-10-04T08:29:28;10.10;99.90
15937;DHT22;9163;48.818;8.976;2022-10-04T08:32:22;10.10;99.90
15937;DHT22;9163;48.818;8.976;2022-10-04T08:35:06;10.30;99.90
15937;DHT22;9163;48.818;8.976;2022-10-04T08:37:48;10.60;99.90
15937;DHT22;9163;48.818;8.976;2022-10-04T08:40:39;10.70;99.90
15937;DHT22;9163;48.818;8.976;2022-10-04T08:43:27;11.10;99.90
15937;DHT22;9163;48.818;8.976;2022-10-04T08:46:17;11.30;99.90
15937;DHT22;9163;48.818;8.976;2022-10-04T08:49:05;11.50;99.90
15937;DHT22;9163;48.818;8.976;2022-10-04T08:54:56;12.30;99.90
15937;DHT22;9163;48.818;8.976;2022-10-04T08:57:52;12.70;99.90
15937;DHT22;9163;48.818;8.976;2022-10-04T09:00:30;12.90;99.90
15937;DHT22;9163;48.818;8.976;2022-10-04T09:03:25;12.50;99.90
15937;DHT22;9163;48.818;8.976;2022-10-04T09:06:10;12.30;99.90
15937;DHT22;9163;48.818;8.976;2022-10-04T09:12:15;13.00;99.90
15937;DHT22;9163;48.818;8.976;2022-10-04T09:15:04;13.30;99.90
15937;DHT22;9163;48.818;8.976;2022-10-04T09:17:40;13.60;99.90
15937;DHT22;9163;48.818;8.976;2022-10-04T09:20:26;13.70;99.90
15937;DHT22;9163;48.818;8.976;2022-10-04T09:23:11;13.90;99.90
15937;DHT22;9163;48.818;8.976;2022-10-04T09:25:48;14.00;99.90
15937;DHT22;9163;48.818;8.976;2022-10-04T09:28:52;14.20;99.90
15937;DHT22;9163;48.818;8.976;2022-10-04T09:31:42;14.40;99.90
15937;DHT22;9163;48.818;8.976;2022-10-04T09:34:22;14.40;99.90
15937;DHT22;9163;48.818;8.976;2022-10-04T09:40:30;14.50;99.90
15937;DHT22;9163;48.818;8.976;2022-10-04T09:43:10;15.10;99.90
15937;DHT22;9163;48.818;8.976;2022-10-04T09:46:02;15.20;99.90
15937;DHT22;9163;48.818;8.976;2022-10-04T09:48:38;15.30;99.90
15937;DHT22;9163;48.818;8.976;2022-10-04T09:51:29;15.50;99.90
15937;DHT22;9163;48.818;8.976;2022-10-04T09:54:27;16.00;99.90
15937;DHT22;9163;48.818;8.976;2022-10-04T09:57:08;15.50;99.90
15937;DHT22;9163;48.818;8.976;2022-10-04T10:00:00;16.00;99.90
15937;DHT22;9163;48.818;8.976;2022-10-04T10:06:00;16.20;99.90
15937;DHT22;9163;48.818;8.976;2022-10-04T10:08:36;16.70;99.90
15937;DHT22;9163;48.818;8.976;2022-10-04T10:11:14;17.00;99.90
15937;DHT22;9163;48.818;8.976;2022-10-04T10:14:14;16.90;99.90
15937;DHT22;9163;48.818;8.976;2022-10-04T10:16:53;16.90;99.90
15937;DHT22;9163;48.818;8.976;2022-10-04T10:19:57;16.90;99.90
15937;DHT22;9163;48.818;8.976;2022-10-04T10:23:01;17.20;99.90
15937;DHT22;9163;48.818;8.976;2022-10-04T10:25:51;18.20;99.90
15937;DHT22;9163;48.818;8.976;2022-10-04T10:28:45;19.30;99.90
15937;DHT22;9163;48.818;8.976;2022-10-04T10:31:42;20.10;99.90
15937;DHT22;9163;48.818;8.976;2022-10-04T10:34:23;20.50;99.90
15937;DHT22;9163;48.818;8.976;2022-10-04T10:37:19;20.60;99.90
15937;DHT22;9163;48.818;8.976;2022-10-04T10:43:16;21.40;99.90
15937;DHT22;9163;48.818;8.976;2022-10-04T10:46:00;22.50;99.90
15937;DHT22;9163;48.818;8.976;2022-10-04T10:48:46;23.80;99.90
15937;DHT22;9163;48.818;8.976;2022-10-04T10:51:34;24.40;99.90
15937;DHT22;9163;48.818;8.976;2022-10-04T10:57:23;24.70;99.90
15937;DHT22;9163;48.818;8.976;2022-10-04T11:00:16;24.30;99.90
15937;DHT22;9163;48.818;8.976;2022-10-04T11:03:22;23.60;99.90
15937;DHT22;9163;48.818;8.976;2022-10-04T11:06:13;23.40;99.90
15937;DHT22;9163;48.818;8.976;2022-10-04T11:18:28;26.80;99.90
15937;DHT22;9163;48.818;8.976;2022-10-04T11:24:39;29.50;99.90
15937;DHT22;9163;48.818;8.976;2022-10-04T11:27:18;28.70;99.80
15937;DHT22;9163;48.818;8.976;2022-10-04T11:30:11;29.60;99.90
15937;DHT22;9163;48.818;8.976;2022-10-04T11:36:02;29.30;96.00
15937;DHT22;9163;48.818;8.976;2022-10-04T11:39:00;29.50;96.10
15937;DHT22;9163;48.818;8.976;2022-10-04T11:41:38;29.40;95.30
15937;DHT22;9163;48.818;8.976;2022-10-04T11:44:28;29.70;95.30
15937;DHT22;9163;48.818;8.976;2022-10-04T11:47:06;29.90;93.70
15937;DHT22;9163;48.818;8.976;2022-10-04T11:49:51;30.50;92.30
15937;DHT22;9163;48.818;8.976;2022-10-04T11:52:41;30.20;92.40
15937;DHT22;9163;48.818;8.976;2022-10-04T11:58:15;29.30;92.10
15937;DHT22;9163;48.818;8.976;2022-10-04T12:04:19;28.60;93.10
15937;DHT22;9163;48.818;8.976;2022-10-04T12:07:03;29.20;93.60
15937;DHT22;9163;48.818;8.976;2022-10-04T12:09:39;29.70;92.40
15937;DHT22;9163;48.818;8.976;2022-10-04T12:12:26;30.80;91.00
15937;DHT22;9163;48.818;8.976;2022-10-04T12:15:22;31.90;86.70
15937;DHT22;9163;48.818;8.976;2022-10-04T12:18:27;33.40;87.30
15937;DHT22;9163;48.818;8.976;2022-10-04T12:24:17;32.30;82.70
15937;DHT22;9163;48.818;8.976;2022-10-04T12:27:08;33.60;81.20
15937;DHT22;9163;48.818;8.976;2022-10-04T12:30:13;33.60;74.60
15937;DHT22;9163;48.818;8.976;2022-10-04T12:32:53;32.40;75.50
15937;DHT22;9163;48.818;8.976;2022-10-04T12:35:28;32.00;76.70
15937;DHT22;9163;48.818;8.976;2022-10-04T12:41:09;32.50;73.60
15937;DHT22;9163;48.818;8.976;2022-10-04T12:43:45;33.50;69.30
15937;DHT22;9163;48.818;8.976;2022-10-04T12:46:27;33.90;66.60
15937;DHT22;9163;48.818;8.976;2022-10-04T12:49:04;35.40;71.70
15937;DHT22;9163;48.818;8.976;2022-10-04T12:51:41;35.70;69.00
15937;DHT22;9163;48.818;8.976;2022-10-04T12:54:21;37.30;67.80
15937;DHT22;9163;48.818;8.976;2022-10-04T12:56:55;38.10;59.10
15937;DHT22;9163;48.818;8.976;2022-10-04T12:59:38;36.70;57.50
15937;DHT22;9163;48.818;8.976;2022-10-04T13:02:22;36.00;59.00
15937;DHT22;9163;48.818;8.976;2022-10-04T13:04:58;35.60;58.20
15937;DHT22;9163;48.818;8.976;2022-10-04T13:07:43;35.20;58.70
15937;DHT22;9163;48.818;8.976;2022-10-04T13:10:26;35.50;58.10
15937;DHT22;9163;48.818;8.976;2022-10-04T13:16:03;35.90;57.40
15937;DHT22;9163;48.818;8.976;2022-10-04T13:18:39;36.00;57.30
15937;DHT22;9163;48.818;8.976;2022-10-04T13:21:10;35.70;58.10
15937;DHT22;9163;48.818;8.976;2022-10-04T13:23:53;35.00;57.00
15937;DHT22;9163;48.818;8.976;2022-10-04T13:26:40;34.70;57.00
15937;DHT22;9163;48.818;8.976;2022-10-04T13:29:19;33.70;57.80
15937;DHT22;9163;48.818;8.976;2022-10-04T13:31:53;33.10;59.00
15937;DHT22;9163;48.818;8.976;2022-10-04T13:34:29;34.90;58.90
15937;DHT22;9163;48.818;8.976;2022-10-04T13:37:15;35.20;56.60
15937;DHT22;9163;48.818;8.976;2022-10-04T13:40:02;34.60;57.90
15937;DHT22;9163;48.818;8.976;2022-10-04T13:43:06;35.90;57.20
15937;DHT22;9163;48.818;8.976;2022-10-04T13:45:42;36.10;53.90
15937;DHT22;9163;48.818;8.976;2022-10-04T13:48:25;35.70;57.90
15937;DHT22;9163;48.818;8.976;2022-10-04T13:51:05;36.60;56.00
15937;DHT22;9163;48.818;8.976;2022-10-04T13:53:45;34.80;55.00
15937;DHT22;9163;48.818;8.976;2022-10-04T13:56:52;36.50;55.00
15937;DHT22;9163;48.818;8.976;2022-10-04T13:59:29;34.70;53.70
15937;DHT22;9163;48.818;8.976;2022-10-04T14:02:22;36.00;55.30
15937;DHT22;9163;48.818;8.976;2022-10-04T14:08:29;34.10;55.10
15937;DHT22;9163;48.818;8.976;2022-10-04T14:11:13;34.70;55.20
15937;DHT22;9163;48.818;8.976;2022-10-04T14:14:17;35.40;55.40
15937;DHT22;9163;48.818;8.976;2022-10-04T14:17:12;34.80;54.30
15937;DHT22;9163;48.818;8.976;2022-10-04T14:20:02;34.60;55.10
15937;DHT22;9163;48.818;8.976;2022-10-04T14:23:05;35.30;56.20
15937;DHT22;9163;48.818;8.976;2022-10-04T14:26:13;35.20;54.20
15937;DHT22;9163;48.818;8.976;2022-10-04T14:29:06;35.00;55.10
15937;DHT22;9163;48.818;8.976;2022-10-04T14:31:56;34.70;56.00
15937;DHT22;9163;48.818;8.976;2022-10-04T14:34:49;34.40;58.20
15937;DHT22;9163;48.818;8.976;2022-10-04T14:37:53;33.90;60.10
15937;DHT22;9163;48.818;8.976;2022-10-04T14:40:43;33.40;63.80
15937;DHT22;9163;48.818;8.976;2022-10-04T14:46:19;32.30;63.80
15937;DHT22;9163;48.818;8.976;2022-10-04T14:48:58;31.90;66.00
15937;DHT22;9163;48.818;8.976;2022-10-04T14:51:48;31.20;71.00
15937;DHT22;9163;48.818;8.976;2022-10-04T14:54:28;31.00;72.40
15937;DHT22;9163;48.818;8.976;2022-10-04T14:57:03;30.80;73.00
15937;DHT22;9163;48.818;8.976;2022-10-04T14:59:49;30.50;74.40
15937;DHT22;9163;48.818;8.976;2022-10-04T15:02:43;30.20;76.30
15937;DHT22;9163;48.818;8.976;2022-10-04T15:05:28;29.60;76.90
15937;DHT22;9163;48.818;8.976;2022-10-04T15:08:17;29.10;78.30
15937;DHT22;9163;48.818;8.976;2022-10-04T15:10:50;28.60;79.60
15937;DHT22;9163;48.818;8.976;2022-10-04T15:13:24;28.40;81.30
15937;DHT22;9163;48.818;8.976;2022-10-04T15:16:04;28.00;83.10
15937;DHT22;9163;48.818;8.976;2022-10-04T15:18:43;27.70;85.40
15937;DHT22;9163;48.818;8.976;2022-10-04T15:21:31;27.40;86.90
15937;DHT22;9163;48.818;8.976;2022-10-04T15:24:24;26.90;88.80
15937;DHT22;9163;48.818;8.976;2022-10-04T15:27:21;26.80;90.00
15937;DHT22;9163;48.818;8.976;2022-10-04T15:30:02;26.50;91.20
15937;DHT22;9163;48.818;8.976;2022-10-04T15:32:39;25.80;91.80
15937;DHT22;9163;48.818;8.976;2022-10-04T15:35:19;25.40;92.30
15937;DHT22;9163;48.818;8.976;2022-10-04T15:37:54;24.90;94.40
15937;DHT22;9163;48.818;8.976;2022-10-04T15:40:35;24.40;95.20
15937;DHT22;9163;48.818;8.976;2022-10-04T15:43:19;24.10;96.70
15937;DHT22;9163;48.818;8.976;2022-10-04T15:46:15;23.80;99.30
15937;DHT22;9163;48.818;8.976;2022-10-04T15:49:24;23.40;99.60
15937;DHT22;9163;48.818;8.976;2022-10-04T15:52:44;23.20;99.90
15937;DHT22;9163;48.818;8.976;2022-10-04T15:55:28;22.80;99.90
15937;DHT22;9163;48.818;8.976;2022-10-04T15:58:18;22.60;99.90
15937;DHT22;9163;48.818;8.976;2022-10-04T16:01:03;22.40;99.90
15937;DHT22;9163;48.818;8.976;2022-10-04T16:03:42;22.30;99.90
15937;DHT22;9163;48.818;8.976;2022-10-04T16:06:21;22.10;99.90
15937;DHT22;9163;48.818;8.976;2022-10-04T16:09:09;21.80;99.90
15937;DHT22;9163;48.818;8.976;2022-10-04T16:11:49;21.70;99.90
15937;DHT22;9163;48.818;8.976;2022-10-04T16:14:44;21.30;99.90
15937;DHT22;9163;48.818;8.976;2022-10-04T16:17:48;21.10;99.90
15937;DHT22;9163;48.818;8.976;2022-10-04T16:20:37;20.90;99.90
15937;DHT22;9163;48.818;8.976;2022-10-04T16:23:25;20.60;99.90
15937;DHT22;9163;48.818;8.976;2022-10-04T16:25:54;20.30;99.90
15937;DHT22;9163;48.818;8.976;2022-10-04T16:28:31;20.10;99.90
15937;DHT22;9163;48.818;8.976;2022-10-04T16:31:25;19.70;99.90
15937;DHT22;9163;48.818;8.976;2022-10-04T16:33:59;19.50;99.90
15937;DHT22;9163;48.818;8.976;2022-10-04T16:36:44;19.30;99.90
15937;DHT22;9163;48.818;8.976;2022-10-04T16:39:31;19.10;99.90
15937;DHT22;9163;48.818;8.976;2022-10-04T16:42:20;18.80;99.90
15937;DHT22;9163;48.818;8.976;2022-10-04T16:44:52;18.50;99.90
15937;DHT22;9163;48.818;8.976;2022-10-04T16:47:27;18.30;99.90
15937;DHT22;9163;48.818;8.976;2022-10-04T16:49:57;18.10;99.90
15937;DHT22;9163;48.818;8.976;2022-10-04T16:52:41;18.00;99.90
15937;DHT22;9163;48.818;8.976;2022-10-04T16:55:29;17.80;99.90
15937;DHT22;9163;48.818;8.976;2022-10-04T16:58:42;17.70;99.90
15937;DHT22;9163;48.818;8.976;2022-10-04T17:04:40;17.50;99.90
15937;DHT22;9163;48.818;8.976;2022-10-04T17:07:17;17.40;99.90
15937;DHT22;9163;48.818;8.976;2022-10-04T17:09:52;17.30;99.90
15937;DHT22;9163;48.818;8.976;2022-10-04T17:12:24;17.10;99.90
15937;DHT22;9163;48.818;8.976;2022-10-04T17:15:10;17.00;99.90
15937;DHT22;9163;48.818;8.976;2022-10-04T17:17:55;16.90;99.90
15937;DHT22;9163;48.818;8.976;2022-10-04T17:20:43;16.80;99.90
15937;DHT22;9163;48.818;8.976;2022-10-04T17:23:22;16.60;99.90
15937;DHT22;9163;48.818;8.976;2022-10-04T17:26:00;16.50;99.90
15937;DHT22;9163;48.818;8.976;2022-10-04T17:28:33;16.50;99.90
15937;DHT22;9163;48.818;8.976;2022-10-04T17:31:08;16.40;99.90
15937;DHT22;9163;48.818;8.976;2022-10-04T17:33:49;16.40;99.90
15937;DHT22;9163;48.818;8.976;2022-10-04T17:36:27;16.40;99.90
15937;DHT22;9163;48.818;8.976;2022-10-04T17:39:06;16.20;99.90
15937;DHT22;9163;48.818;8.976;2022-10-04T17:41:54;16.10;99.90
15937;DHT22;9163;48.818;8.976;2022-10-04T17:44:36;15.90;99.90
15937;DHT22;9163;48.818;8.976;2022-10-04T17:47:09;15.90;99.90
15937;DHT22;9163;48.818;8.976;2022-10-04T17:49:46;15.80;99.90
15937;DHT22;9163;48.818;8.976;2022-10-04T17:52:41;15.70;99.90
15937;DHT22;9163;48.818;8.976;2022-10-04T17:55:32;15.60;99.90
15937;DHT22;9163;48.818;8.976;2022-10-04T17:58:11;15.50;99.90
15937;DHT22;9163;48.818;8.976;2022-10-04T18:00:54;15.30;99.90
15937;DHT22;9163;48.818;8.976;2022-10-04T18:03:25;15.20;99.90
15937;DHT22;9163;48.818;8.976;2022-10-04T18:06:02;15.10;99.90
15937;DHT22;9163;48.818;8.976;2022-10-04T18:08:45;15.00;99.90
15937;DHT22;9163;48.818;8.976;2022-10-04T18:11:22;15.00;99.90
15937;DHT22;9163;48.818;8.976;2022-10-04T18:13:56;14.90;99.90
15937;DHT22;9163;48.818;8.976;2022-10-04T18:16:28;14.90;99.90
15937;DHT22;9163;48.818;8.976;2022-10-04T18:18:57;14.80;99.90
15937;DHT22;9163;48.818;8.976;2022-10-04T18:21:28;14.70;99.90
15937;DHT22;9163;48.818;8.976;2022-10-04T18:24:00;14.70;99.90
15937;DHT22;9163;48.818;8.976;2022-10-04T18:26:29;14.60;99.90
15937;DHT22;9163;48.818;8.976;2022-10-04T18:28:59;14.60;99.90